createdAt,value
2023-04-19T00:12:24.454Z,8.09
2023-04-19T00:32:24.463Z,8.07
2023-04-19T00:52:24.450Z,8.04
2023-04-19T01:12:24.350Z,8.03
2023-04-19T01:32:24.351Z,8.00
2023-04-19T01:52:24.365Z,7.99
2023-04-19T02:12:24.397Z,7.99
2023-04-19T02:32:24.350Z,7.96
2023-04-19T02:52:24.346Z,7.93
2023-04-19T03:12:24.344Z,7.88
2023-04-19T03:32:24.336Z,7.85
2023-04-19T03:52:24.320Z,7.85
2023-04-19T04:12:24.351Z,7.86
2023-04-19T04:32:24.341Z,7.91
2023-04-19T04:52:24.375Z,7.95
2023-04-19T05:12:24.354Z,7.98
2023-04-19T05:32:24.259Z,8.04
2023-04-19T05:52:24.462Z,8.08
2023-04-19T06:12:24.319Z,8.10
2023-04-19T06:32:24.387Z,8.15
2023-04-19T06:52:24.326Z,8.30
2023-04-19T07:12:24.272Z,8.97
2023-04-19T07:32:24.337Z,9.87
2023-04-19T07:52:24.480Z,10.27
2023-04-19T08:12:24.213Z,10.87
2023-04-19T08:32:24.273Z,11.51
2023-04-19T08:52:24.242Z,11.28
2023-04-19T09:12:24.414Z,10.87
2023-04-19T09:32:24.192Z,10.53
2023-04-19T09:52:24.196Z,10.36
2023-04-19T10:12:24.103Z,10.85
2023-04-19T10:32:24.095Z,11.02
2023-04-19T10:52:24.110Z,10.36
2023-04-19T11:12:24.113Z,9.42
2023-04-19T11:32:24.106Z,8.96
2023-04-19T11:52:24.107Z,8.53
2023-04-19T12:12:24.107Z,8.23
2023-04-19T12:32:24.028Z,8.19
2023-04-19T12:52:24.018Z,8.16
2023-04-19T13:12:24.022Z,8.14
2023-04-19T13:32:24.020Z,8.09
2023-04-19T13:52:24.033Z,7.41
2023-04-19T14:12:24.038Z,7.12
2023-04-19T14:32:24.030Z,6.50
2023-04-19T14:52:24.037Z,5.86
2023-04-19T15:12:24.034Z,6.12
2023-04-19T15:32:24.048Z,6.30
2023-04-19T15:52:24.040Z,6.36
2023-04-19T16:12:24.043Z,6.16
2023-04-19T16:32:24.053Z,6.08
2023-04-19T16:52:23.947Z,6.06
2023-04-19T17:12:23.945Z,6.08
2023-04-19T17:32:24.019Z,5.92
2023-04-19T17:52:23.948Z,5.85
2023-04-19T18:12:23.954Z,5.96
2023-04-19T18:32:23.976Z,5.84
2023-04-19T18:52:23.958Z,5.77
2023-04-19T19:12:23.957Z,5.79
2023-04-19T19:32:23.956Z,5.74
2023-04-19T19:52:23.967Z,5.68
2023-04-19T20:12:23.970Z,5.57
2023-04-19T20:32:28.711Z,5.55
2023-04-19T20:52:23.953Z,5.47
2023-04-19T21:12:23.950Z,5.47
2023-04-19T21:32:23.947Z,5.20
2023-04-19T21:52:23.957Z,5.26
2023-04-19T22:12:23.971Z,5.31
2023-04-19T22:32:23.963Z,5.23
2023-04-19T22:52:23.948Z,5.27
2023-04-19T23:12:23.953Z,5.16
2023-04-19T23:32:23.949Z,5.35
2023-04-19T23:52:23.950Z,5.35
